Time;durP1;ratioP1;P1;durP2;ratioP2;P2;SDS_P1;SDS_P2;PMS_P1;PMS_P2;Temp;Humidity;BMP_temperature;BMP_pressure;BME280_temperature;BME280_humidity;BME280_pressure;Samples;Min_cycle;Max_cycle;Signal;HPM_P1;HPM_P2
2021/10/08 00:01:30;;;;;;;;;;;;;;;12.34;100.00;100389.94;4985104;28;19919;-76
2021/10/08 00:03:56;;;;;;;;;;;;;;;12.21;100.00;100388.41;4961763;28;19919;-76
2021/10/08 00:06:21;;;;;;;;;;;;;;;12.36;100.00;100389.88;4984709;28;21001;-76
2021/10/08 00:08:47;;;;;;;;;;;;;;;12.46;100.00;100388.84;4960353;28;20284;-76
2021/10/08 00:11:12;;;;;;;;;;;;;;;12.46;100.00;100393.19;4985788;28;20427;-76
2021/10/08 00:13:38;;;;;;;;;;;;;;;12.45;100.00;100392.34;4983338;28;19919;-76
2021/10/08 00:16:05;;;;;;;;;;;;;;;12.31;100.00;100394.28;4984342;28;20494;-76
2021/10/08 00:18:31;;;;;;;;;;;;;;;12.77;100.00;100386.59;4983509;28;19924;-76
2021/10/08 00:20:56;;;;;;;;;;;;;;;12.72;100.00;100390.13;4972588;28;19929;-76
2021/10/08 00:23:21;;;;;;;;;;;;;;;12.55;100.00;100393.88;4982419;28;19963;-76
2021/10/08 00:25:47;;;;;;;;;;;;;;;12.73;100.00;100391.84;4983129;28;20089;-76
2021/10/08 00:28:12;;;;;;;;;;;;;;;12.47;100.00;100395.72;4927844;28;19918;-76
2021/10/08 00:30:37;;;;;;;;;;;;;;;12.33;100.00;100393.38;4889545;28;20013;-76
2021/10/08 00:33:03;;;;;;;;;;;;;;;12.18;100.00;100397.94;4910931;28;20374;-76
2021/10/08 00:35:28;;;;;;;;;;;;;;;12.29;100.00;100394.31;4975458;28;19927;-76
2021/10/08 00:37:54;;;;;;;;;;;;;;;12.24;100.00;100397.84;4960199;28;19998;-76
2021/10/08 00:40:19;;;;;;;;;;;;;;;12.07;100.00;100391.22;4969233;28;19969;-76
2021/10/08 00:42:46;;;;;;;;;;;;;;;11.46;100.00;100397.25;4985980;28;20390;-76
2021/10/08 00:45:11;;;;;;;;;;;;;;;11.76;100.00;100395.13;4989296;28;19919;-76
2021/10/08 00:47:37;;;;;;;;;;;;;;;11.52;100.00;100403.19;4989446;28;20034;-76
2021/10/08 00:50:04;;;;;;;;;;;;;;;11.54;100.00;100403.16;4995195;28;19929;-75
2021/10/08 00:52:30;;;;;;;;;;;;;;;11.78;100.00;100399.38;4874079;28;20033;-76
2021/10/08 00:54:55;;;;;;;;;;;;;;;11.45;100.00;100400.72;4980351;28;20018;-76
2021/10/08 00:57:20;;;;;;;;;;;;;;;11.58;100.00;100399.66;4970219;28;19917;-76
2021/10/08 00:59:46;;;;;;;;;;;;;;;11.45;100.00;100393.81;4973135;28;19921;-76
2021/10/08 01:02:11;;;;;;;;;;;;;;;11.40;100.00;100392.16;4989419;28;19926;-76
2021/10/08 01:04:37;;;;;;;;;;;;;;;11.55;100.00;100407.44;4976069;28;20371;-76
2021/10/08 01:07:02;;;;;;;;;;;;;;;11.75;100.00;100394.28;4968949;28;20367;-76
2021/10/08 01:09:27;;;;;;;;;;;;;;;11.93;100.00;100398.34;4963229;28;20374;-76
2021/10/08 01:11:53;;;;;;;;;;;;;;;12.06;100.00;100399.84;4988508;28;19943;-76
2021/10/08 01:14:18;;;;;;;;;;;;;;;12.19;100.00;100395.34;4976515;28;19934;-76
2021/10/08 01:16:44;;;;;;;;;;;;;;;12.25;100.00;100384.06;4983056;28;19977;-76
2021/10/08 01:19:10;;;;;;;;;;;;;;;11.92;100.00;100392.31;4922686;28;19918;-76
2021/10/08 01:21:35;;;;;;;;;;;;;;;12.04;100.00;100396.44;4986134;28;19919;-76
2021/10/08 01:24:01;;;;;;;;;;;;;;;12.04;100.00;100391.28;4995472;28;19923;-75
2021/10/08 01:26:26;;;;;;;;;;;;;;;11.82;100.00;100395.03;4911136;28;19972;-76
2021/10/08 01:28:51;;;;;;;;;;;;;;;12.27;100.00;100387.47;4984891;28;19926;-76
2021/10/08 01:31:20;;;;;;;;;;;;;;;12.32;100.00;100383.09;4978945;28;19915;-76
2021/10/08 01:33:45;;;;;;;;;;;;;;;11.87;100.00;100394.13;4986604;28;19934;-76
2021/10/08 01:36:11;;;;;;;;;;;;;;;11.16;100.00;100393.34;4984612;28;19915;-75
2021/10/08 01:38:36;;;;;;;;;;;;;;;11.36;100.00;100405.97;4987836;28;19946;-76
2021/10/08 01:41:01;;;;;;;;;;;;;;;10.59;100.00;100396.53;4908151;28;19929;-76
2021/10/08 01:43:27;;;;;;;;;;;;;;;10.36;100.00;100405.31;4981162;28;19994;-76
2021/10/08 01:45:52;;;;;;;;;;;;;;;10.69;100.00;100400.69;4984425;28;19966;-76
2021/10/08 01:48:17;;;;;;;;;;;;;;;10.59;100.00;100399.09;4978915;28;19923;-76
2021/10/08 01:50:43;;;;;;;;;;;;;;;10.96;100.00;100402.13;4973359;28;19935;-76
2021/10/08 01:53:09;;;;;;;;;;;;;;;10.64;100.00;100405.91;4993453;28;19919;-76
2021/10/08 01:55:34;;;;;;;;;;;;;;;11.36;100.00;100408.53;4965421;28;19927;-76
2021/10/08 01:58:00;;;;;;;;;;;;;;;11.33;100.00;100406.84;4981836;28;20171;-76
2021/10/08 02:00:25;;;;;;;;;;;;;;;11.47;100.00;100404.09;4984761;28;19927;-76
2021/10/08 02:02:50;;;;;;;;;;;;;;;11.68;100.00;100406.41;4969852;28;19950;-76
2021/10/08 02:05:16;;;;;;;;;;;;;;;11.76;100.00;100410.59;4906792;28;20442;-76
2021/10/08 02:07:41;;;;;;;;;;;;;;;11.92;100.00;100409.53;4982278;28;19927;-76
2021/10/08 02:10:07;;;;;;;;;;;;;;;11.42;100.00;100405.88;4985093;28;19919;-77
2021/10/08 02:12:32;;;;;;;;;;;;;;;11.34;100.00;100402.56;4989881;28;20010;-76
2021/10/08 02:14:58;;;;;;;;;;;;;;;11.12;100.00;100402.81;4911273;28;19927;-77
2021/10/08 02:17:23;;;;;;;;;;;;;;;11.60;100.00;100399.63;4969155;28;20006;-76
2021/10/08 02:19:48;;;;;;;;;;;;;;;11.27;100.00;100400.06;4905573;28;19934;-76
2021/10/08 02:22:14;;;;;;;;;;;;;;;11.19;100.00;100403.59;4987797;28;19927;-76
2021/10/08 02:24:39;;;;;;;;;;;;;;;11.06;100.00;100408.03;4908293;28;19919;-76
2021/10/08 02:27:05;;;;;;;;;;;;;;;11.05;100.00;100398.59;4991576;28;19944;-76
2021/10/08 02:29:30;;;;;;;;;;;;;;;10.97;100.00;100397.84;4922918;28;20020;-76
2021/10/08 02:31:55;;;;;;;;;;;;;;;10.34;100.00;100401.88;4907684;28;20448;-76
2021/10/08 02:34:21;;;;;;;;;;;;;;;10.24;100.00;100400.22;4973287;28;19985;-76
2021/10/08 02:36:46;;;;;;;;;;;;;;;10.57;100.00;100400.84;4959247;28;19929;-76
2021/10/08 02:39:12;;;;;;;;;;;;;;;10.84;100.00;100397.13;4981344;28;19915;-77
2021/10/08 02:41:37;;;;;;;;;;;;;;;11.00;100.00;100393.50;4907638;28;19958;-77
2021/10/08 02:44:02;;;;;;;;;;;;;;;11.06;100.00;100402.88;4977579;28;19942;-77
2021/10/08 02:46:28;;;;;;;;;;;;;;;10.67;100.00;100399.84;4970021;28;19930;-76
2021/10/08 02:48:53;;;;;;;;;;;;;;;10.54;100.00;100403.44;4954018;28;19926;-76
2021/10/08 02:51:19;;;;;;;;;;;;;;;9.96;100.00;100400.44;4968239;28;20464;-77
2021/10/08 02:53:44;;;;;;;;;;;;;;;9.82;100.00;100397.94;4984218;28;19929;-76
2021/10/08 02:56:09;;;;;;;;;;;;;;;9.90;100.00;100404.75;4966225;28;19923;-76
2021/10/08 02:58:36;;;;;;;;;;;;;;;9.59;100.00;100405.81;4965732;28;19933;-76
2021/10/08 03:01:01;;;;;;;;;;;;;;;10.10;100.00;100407.19;4903943;28;19922;-76
2021/10/08 03:03:27;;;;;;;;;;;;;;;10.16;100.00;100402.84;4983980;28;19927;-76
2021/10/08 03:05:52;;;;;;;;;;;;;;;10.22;100.00;100401.97;4985638;28;19916;-76
2021/10/08 03:08:17;;;;;;;;;;;;;;;9.61;100.00;100409.22;4922195;28;19927;-76
2021/10/08 03:10:43;;;;;;;;;;;;;;;9.34;100.00;100410.22;4904926;28;19930;-76
2021/10/08 03:13:08;;;;;;;;;;;;;;;9.52;100.00;100408.44;4955452;28;19923;-76
2021/10/08 03:15:34;;;;;;;;;;;;;;;9.54;100.00;100404.97;4905876;28;19928;-76
2021/10/08 03:17:59;;;;;;;;;;;;;;;9.56;100.00;100407.56;4982028;28;20036;-77
2021/10/08 03:20:24;;;;;;;;;;;;;;;9.39;100.00;100407.63;4979451;28;19929;-77
2021/10/08 03:22:50;;;;;;;;;;;;;;;9.31;100.00;100406.81;4971579;28;20772;-77
2021/10/08 03:25:15;;;;;;;;;;;;;;;9.01;100.00;100413.78;4953865;28;19915;-77
2021/10/08 03:27:41;;;;;;;;;;;;;;;9.15;100.00;100414.56;4973363;28;19925;-77
2021/10/08 03:30:08;;;;;;;;;;;;;;;9.02;100.00;100412.91;4964267;28;19945;-75
2021/10/08 03:32:34;;;;;;;;;;;;;;;8.87;100.00;100418.06;4906730;28;20010;-77
2021/10/08 03:34:59;;;;;;;;;;;;;;;8.82;100.00;100417.25;4966059;28;19990;-76
2021/10/08 03:37:32;;;;;;;;;;;;;;;8.93;100.00;100423.22;4967770;28;20016;-77
2021/10/08 03:39:57;;;;;;;;;;;;;;;9.25;100.00;100414.53;4964908;28;20284;-77
2021/10/08 03:42:23;;;;;;;;;;;;;;;9.51;100.00;100427.28;4986491;28;19923;-77
2021/10/08 03:44:58;;;;;;;;;;;;;;;9.54;100.00;100422.97;4982758;28;20033;-76
2021/10/08 03:47:29;;;;;;;;;;;;;;;9.34;100.00;100422.22;4959496;28;19926;-76
2021/10/08 03:49:54;;;;;;;;;;;;;;;9.23;100.00;100419.69;4983301;28;19923;-77
2021/10/08 03:52:20;;;;;;;;;;;;;;;9.48;100.00;100427.31;4977696;28;19971;-76
2021/10/08 03:54:45;;;;;;;;;;;;;;;9.83;100.00;100427.13;4923853;28;19934;-77
2021/10/08 03:57:10;;;;;;;;;;;;;;;10.12;100.00;100421.75;4965917;28;19950;-76
2021/10/08 03:59:36;;;;;;;;;;;;;;;10.42;100.00;100418.16;4908709;28;19919;-76
2021/10/08 04:02:01;;;;;;;;;;;;;;;10.47;100.00;100415.53;4906333;28;19929;-76
2021/10/08 04:04:26;;;;;;;;;;;;;;;10.18;100.00;100413.16;4978309;28;19928;-76
2021/10/08 04:06:52;;;;;;;;;;;;;;;10.24;100.00;100415.66;4991043;28;19919;-76
2021/10/08 04:09:17;;;;;;;;;;;;;;;10.63;100.00;100417.09;4964171;28;19923;-76
2021/10/08 04:11:42;;;;;;;;;;;;;;;10.55;100.00;100418.03;4978938;28;19926;-76
2021/10/08 04:14:08;;;;;;;;;;;;;;;10.55;100.00;100423.19;4950349;28;19915;-76
2021/10/08 04:16:36;;;;;;;;;;;;;;;10.68;100.00;100420.47;4979086;28;20482;-76
2021/10/08 04:19:02;;;;;;;;;;;;;;;10.43;100.00;100411.25;4975187;28;19969;-76
2021/10/08 04:21:27;;;;;;;;;;;;;;;10.73;100.00;100409.28;4976559;28;20555;-76
2021/10/08 04:23:52;;;;;;;;;;;;;;;10.80;100.00;100414.34;4991684;28;19923;-76
2021/10/08 04:26:18;;;;;;;;;;;;;;;10.85;100.00;100420.28;4991127;28;19923;-76
2021/10/08 04:28:43;;;;;;;;;;;;;;;10.87;100.00;100410.81;4982432;28;20298;-76
2021/10/08 04:31:08;;;;;;;;;;;;;;;10.96;100.00;100416.75;4981401;28;19924;-76
2021/10/08 04:33:34;;;;;;;;;;;;;;;10.75;100.00;100417.84;4989690;28;20358;-76
2021/10/08 04:36:00;;;;;;;;;;;;;;;10.84;100.00;100425.47;4985788;28;19923;-76
2021/10/08 04:38:26;;;;;;;;;;;;;;;10.41;100.00;100426.72;4988261;28;19962;-76
2021/10/08 04:40:51;;;;;;;;;;;;;;;10.53;100.00;100417.19;4895548;28;20837;-76
2021/10/08 04:43:17;;;;;;;;;;;;;;;10.00;100.00;100425.28;4969469;28;19927;-76
2021/10/08 04:45:42;;;;;;;;;;;;;;;10.16;100.00;100427.75;4981809;28;19919;-76
2021/10/08 04:48:07;;;;;;;;;;;;;;;10.42;100.00;100422.41;4918979;28;20405;-76
2021/10/08 04:50:33;;;;;;;;;;;;;;;10.43;100.00;100427.56;4955286;28;20034;-77
2021/10/08 04:52:58;;;;;;;;;;;;;;;10.38;100.00;100426.75;4973770;28;19925;-77
2021/10/08 04:55:23;;;;;;;;;;;;;;;10.05;100.00;100426.09;4976734;28;19923;-76
2021/10/08 04:57:48;;;;;;;;;;;;;;;9.97;100.00;100430.47;4984630;28;19927;-75
2021/10/08 05:00:14;;;;;;;;;;;;;;;10.01;100.00;100437.31;4974926;28;20006;-75
2021/10/08 05:02:39;;;;;;;;;;;;;;;9.96;100.00;100439.03;4979302;28;19926;-76
2021/10/08 05:05:05;;;;;;;;;;;;;;;9.77;100.00;100433.16;4958884;28;19916;-76
2021/10/08 05:07:30;;;;;;;;;;;;;;;9.67;100.00;100439.22;4964656;28;19930;-76
2021/10/08 05:09:55;;;;;;;;;;;;;;;9.74;100.00;100440.00;4968125;28;19919;-76
2021/10/08 05:12:25;;;;;;;;;;;;;;;9.74;100.00;100440.91;4983828;28;19938;-77
2021/10/08 05:14:51;;;;;;;;;;;;;;;9.47;100.00;100439.31;4952480;28;19977;-76
2021/10/08 05:17:16;;;;;;;;;;;;;;;9.56;100.00;100449.56;4991838;28;19923;-78
2021/10/08 05:19:41;;;;;;;;;;;;;;;9.52;100.00;100444.44;4994200;28;20751;-78
2021/10/08 05:22:06;;;;;;;;;;;;;;;9.61;100.00;100447.81;4984826;28;19990;-78
2021/10/08 05:24:32;;;;;;;;;;;;;;;9.52;100.00;100447.00;4932699;28;19903;-78
2021/10/08 05:26:57;;;;;;;;;;;;;;;9.49;100.00;100450.44;4891878;28;19927;-79
2021/10/08 05:29:22;;;;;;;;;;;;;;;9.29;100.00;100458.22;4928160;28;20004;-78
2021/10/08 05:31:48;;;;;;;;;;;;;;;9.14;100.00;100458.28;4970842;28;19935;-78
2021/10/08 05:34:13;;;;;;;;;;;;;;;9.06;100.00;100462.59;4913114;28;19962;-78
2021/10/08 05:36:39;;;;;;;;;;;;;;;8.84;100.00;100464.34;4984514;28;19931;-78
2021/10/08 05:39:04;;;;;;;;;;;;;;;9.14;100.00;100460.84;4973855;28;19981;-78
2021/10/08 05:41:29;;;;;;;;;;;;;;;8.82;100.00;100468.63;4959257;28;19981;-78
2021/10/08 05:43:55;;;;;;;;;;;;;;;8.83;100.00;100466.06;4982930;28;19933;-78
2021/10/08 05:46:20;;;;;;;;;;;;;;;9.02;100.00;100461.72;4925072;28;20080;-78
2021/10/08 05:48:45;;;;;;;;;;;;;;;9.24;100.00;100469.38;4950840;28;19930;-77
2021/10/08 05:51:11;;;;;;;;;;;;;;;8.72;100.00;100465.22;4962399;28;20409;-78
2021/10/08 05:53:36;;;;;;;;;;;;;;;8.51;100.00;100476.34;4974352;28;19923;-78
2021/10/08 05:56:01;;;;;;;;;;;;;;;8.89;100.00;100471.16;4919036;28;20888;-78
2021/10/08 05:58:27;;;;;;;;;;;;;;;8.95;100.00;100460.88;4985880;28;19915;-78
2021/10/08 06:00:52;;;;;;;;;;;;;;;8.98;100.00;100463.44;4909899;28;19930;-77
2021/10/08 06:03:17;;;;;;;;;;;;;;;8.75;100.00;100463.47;4977744;28;19923;-77
2021/10/08 06:05:42;;;;;;;;;;;;;;;8.66;100.00;100467.78;4974115;28;20375;-78
2021/10/08 06:08:08;;;;;;;;;;;;;;;9.21;100.00;100471.13;4986362;28;19919;-78
2021/10/08 06:10:33;;;;;;;;;;;;;;;9.26;100.00;100468.53;4972936;28;20852;-77
2021/10/08 06:12:59;;;;;;;;;;;;;;;9.54;100.00;100473.56;4983166;28;20306;-78
2021/10/08 06:15:24;;;;;;;;;;;;;;;9.75;100.00;100462.31;4913802;28;20014;-78
2021/10/08 06:17:50;;;;;;;;;;;;;;;9.84;100.00;100459.69;4958978;28;19925;-77
2021/10/08 06:20:15;;;;;;;;;;;;;;;9.83;100.00;100463.16;4971016;28;20454;-77
2021/10/08 06:22:40;;;;;;;;;;;;;;;10.17;100.00;100460.34;4912383;28;19919;-78
2021/10/08 06:25:06;;;;;;;;;;;;;;;9.99;100.00;100457.03;4967754;28;19919;-78
2021/10/08 06:27:32;;;;;;;;;;;;;;;10.25;100.00;100456.00;4980130;28;20712;-78
2021/10/08 06:29:58;;;;;;;;;;;;;;;10.49;100.00;100459.28;4961291;28;19993;-78
2021/10/08 06:32:23;;;;;;;;;;;;;;;10.25;100.00;100458.59;4990656;28;20014;-78
2021/10/08 06:34:48;;;;;;;;;;;;;;;9.91;100.00;100468.25;4891853;28;20006;-77
2021/10/08 06:37:14;;;;;;;;;;;;;;;9.63;100.00;100470.97;4983712;28;20013;-77
2021/10/08 06:39:39;;;;;;;;;;;;;;;9.95;100.00;100464.78;4991484;28;19977;-78
2021/10/08 06:42:04;;;;;;;;;;;;;;;9.70;100.00;100464.06;4972772;28;19915;-78
2021/10/08 06:44:30;;;;;;;;;;;;;;;10.18;100.00;100468.06;4972250;28;19930;-78
2021/10/08 06:46:55;;;;;;;;;;;;;;;9.93;100.00;100469.94;4955004;28;20009;-78
2021/10/08 06:49:21;;;;;;;;;;;;;;;10.29;100.00;100470.59;4980919;28;20012;-78
2021/10/08 06:51:47;;;;;;;;;;;;;;;10.14;100.00;100473.25;4973648;28;19927;-78
2021/10/08 06:54:12;;;;;;;;;;;;;;;10.23;100.00;100475.75;4930901;28;19923;-78
2021/10/08 06:56:37;;;;;;;;;;;;;;;10.57;100.00;100475.53;4958830;28;19932;-78
2021/10/08 06:59:03;;;;;;;;;;;;;;;10.33;100.00;100472.31;4956490;28;19923;-78
2021/10/08 07:01:28;;;;;;;;;;;;;;;10.44;100.00;100485.91;4959132;28;19919;-78
2021/10/08 07:03:53;;;;;;;;;;;;;;;10.48;100.00;100480.75;4987284;28;19906;-78
2021/10/08 07:06:19;;;;;;;;;;;;;;;10.70;100.00;100477.16;4979298;28;20446;-78
2021/10/08 07:08:44;;;;;;;;;;;;;;;10.87;100.00;100485.56;4912649;28;19943;-78
2021/10/08 07:11:09;;;;;;;;;;;;;;;11.11;100.00;100478.47;4918263;28;19991;-77
2021/10/08 07:13:35;;;;;;;;;;;;;;;11.21;100.00;100480.06;4909263;28;20489;-77
2021/10/08 07:16:01;;;;;;;;;;;;;;;11.19;100.00;100486.97;4974870;28;19927;-78
2021/10/08 07:18:34;;;;;;;;;;;;;;;11.28;100.00;100486.84;4919904;28;20014;-78
2021/10/08 07:21:00;;;;;;;;;;;;;;;11.30;100.00;100490.28;4968835;28;19923;-79
2021/10/08 07:23:25;;;;;;;;;;;;;;;11.71;100.00;100488.94;4963889;28;20393;-78
2021/10/08 07:25:51;;;;;;;;;;;;;;;11.51;100.00;100478.00;4962031;28;19919;-77
2021/10/08 07:28:16;;;;;;;;;;;;;;;11.40;100.00;100490.19;4957552;28;19959;-78
2021/10/08 07:30:42;;;;;;;;;;;;;;;11.71;100.00;100491.50;4969279;28;20002;-79
2021/10/08 07:33:07;;;;;;;;;;;;;;;11.85;100.00;100493.06;4967680;28;20050;-78
2021/10/08 07:35:32;;;;;;;;;;;;;;;12.46;100.00;100491.38;4975920;28;19923;-78
2021/10/08 07:37:58;;;;;;;;;;;;;;;12.38;100.00;100494.06;4963945;28;19981;-78
2021/10/08 07:40:23;;;;;;;;;;;;;;;12.85;100.00;100489.84;4976986;28;19919;-78
2021/10/08 07:42:48;;;;;;;;;;;;;;;13.17;100.00;100493.59;4982750;28;19927;-78
2021/10/08 07:45:14;;;;;;;;;;;;;;;12.85;100.00;100501.91;4965369;28;20018;-78
2021/10/08 07:47:39;;;;;;;;;;;;;;;13.58;100.00;100491.94;4957452;28;20001;-78
2021/10/08 07:50:05;;;;;;;;;;;;;;;12.96;100.00;100498.25;4986150;28;19927;-79
2021/10/08 07:52:30;;;;;;;;;;;;;;;13.27;100.00;100505.44;4889956;28;19930;-78
2021/10/08 07:54:56;;;;;;;;;;;;;;;14.00;100.00;100499.69;4912276;28;19934;-78
2021/10/08 07:57:21;;;;;;;;;;;;;;;13.81;100.00;100494.06;4913558;28;19919;-78
2021/10/08 07:59:46;;;;;;;;;;;;;;;13.92;100.00;100496.44;4983631;28;19961;-78
2021/10/08 08:02:11;;;;;;;;;;;;;;;13.76;100.00;100501.94;4922329;28;20367;-78
2021/10/08 08:04:37;;;;;;;;;;;;;;;13.20;100.00;100509.03;4975491;28;20381;-78
2021/10/08 08:07:03;;;;;;;;;;;;;;;13.65;100.00;100514.25;4978369;28;19923;-76
2021/10/08 08:09:28;;;;;;;;;;;;;;;13.91;100.00;100507.66;4958424;28;19958;-78
2021/10/08 08:11:54;;;;;;;;;;;;;;;14.88;100.00;100508.88;4906459;28;19957;-78
2021/10/08 08:14:19;;;;;;;;;;;;;;;14.42;100.00;100512.56;4891087;28;19923;-78
2021/10/08 08:16:44;;;;;;;;;;;;;;;14.00;100.00;100510.03;4906701;28;20018;-78
2021/10/08 08:19:11;;;;;;;;;;;;;;;14.06;100.00;100512.50;4981584;28;19927;-78
2021/10/08 08:21:36;;;;;;;;;;;;;;;15.32;100.00;100509.44;4977789;28;19920;-78
2021/10/08 08:24:02;;;;;;;;;;;;;;;14.27;100.00;100510.31;4962520;28;20449;-78
2021/10/08 08:26:27;;;;;;;;;;;;;;;15.08;100.00;100510.09;4986621;28;19923;-78
2021/10/08 08:28:53;;;;;;;;;;;;;;;15.44;100.00;100511.69;4992587;28;19919;-78
2021/10/08 08:31:18;;;;;;;;;;;;;;;14.93;100.00;100507.00;4904755;28;19963;-78
2021/10/08 08:33:44;;;;;;;;;;;;;;;14.74;100.00;100509.22;4987204;28;19983;-78
2021/10/08 08:36:10;;;;;;;;;;;;;;;14.70;100.00;100512.78;4926148;28;19923;-78
2021/10/08 08:38:35;;;;;;;;;;;;;;;14.04;100.00;100516.88;4978980;28;19923;-78
2021/10/08 08:41:01;;;;;;;;;;;;;;;14.92;100.00;100514.84;4980536;28;19982;-76
2021/10/08 08:43:26;;;;;;;;;;;;;;;15.46;100.00;100507.31;4990532;28;20016;-78
2021/10/08 08:45:52;;;;;;;;;;;;;;;14.87;100.00;100509.78;4996874;28;20004;-77
2021/10/08 08:48:17;;;;;;;;;;;;;;;14.63;100.00;100506.88;4925558;28;19919;-78
2021/10/08 08:50:46;;;;;;;;;;;;;;;15.21;100.00;100503.66;4915993;28;19927;-77
2021/10/08 08:53:12;;;;;;;;;;;;;;;16.03;100.00;100504.81;4934045;28;19931;-78
2021/10/08 08:55:38;;;;;;;;;;;;;;;16.46;100.00;100498.28;4986927;28;20073;-77
2021/10/08 08:58:03;;;;;;;;;;;;;;;16.44;100.00;100494.88;4922485;28;19920;-77
2021/10/08 09:00:28;;;;;;;;;;;;;;;16.13;100.00;100495.88;4972848;28;19934;-75
2021/10/08 09:03:04;;;;;;;;;;;;;;;15.45;100.00;100492.63;4992544;28;19919;-77
2021/10/08 09:05:35;;;;;;;;;;;;;;;16.21;100.00;100493.84;4929422;28;19919;-78
2021/10/08 09:08:07;;;;;;;;;;;;;;;16.44;100.00;100487.94;4986721;28;19962;-77
2021/10/08 09:10:34;;;;;;;;;;;;;;;17.21;100.00;100481.91;4987329;28;19919;-77
2021/10/08 09:13:00;;;;;;;;;;;;;;;16.54;100.00;100485.06;4992745;28;19919;-77
2021/10/08 09:15:29;;;;;;;;;;;;;;;18.23;100.00;100477.22;4960340;28;19923;-78
2021/10/08 09:18:09;;;;;;;;;;;;;;;16.60;100.00;100485.66;4921880;28;20410;-77
2021/10/08 09:20:35;;;;;;;;;;;;;;;16.57;100.00;100488.38;4982778;28;20023;-75
2021/10/08 09:23:01;;;;;;;;;;;;;;;17.72;100.00;100467.88;4988725;28;19990;-77
2021/10/08 09:25:36;;;;;;;;;;;;;;;17.70;100.00;100474.91;4964473;28;19990;-76
2021/10/08 09:28:06;;;;;;;;;;;;;;;18.78;100.00;100474.13;4978045;28;19940;-76
2021/10/08 09:30:42;;;;;;;;;;;;;;;17.39;100.00;100481.25;4978783;28;19919;-75
2021/10/08 09:33:14;;;;;;;;;;;;;;;17.36;100.00;100476.16;4966254;28;19968;-76
2021/10/08 09:35:40;;;;;;;;;;;;;;;18.76;100.00;100476.75;4995273;28;19930;-77
2021/10/08 09:38:11;;;;;;;;;;;;;;;17.66;100.00;100478.53;4987674;28;20379;-78
2021/10/08 09:40:47;;;;;;;;;;;;;;;17.10;100.00;100483.13;4917500;28;20113;-77
2021/10/08 09:43:14;;;;;;;;;;;;;;;16.71;100.00;100491.38;4879681;28;19907;-78
2021/10/08 09:45:44;;;;;;;;;;;;;;;17.65;100.00;100487.25;5001306;28;19914;-77
2021/10/08 09:48:09;;;;;;;;;;;;;;;16.85;100.00;100492.69;4970354;28;21211;-77
2021/10/08 09:50:35;;;;;;;;;;;;;;;17.18;100.00;100493.28;4987554;28;19977;-77
2021/10/08 09:53:07;;;;;;;;;;;;;;;16.71;100.00;100490.53;4983085;28;20406;-78
2021/10/08 09:55:32;;;;;;;;;;;;;;;16.76;100.00;100493.81;4907817;28;19934;-78
2021/10/08 09:57:58;;;;;;;;;;;;;;;16.56;100.00;100499.72;4977184;28;19923;-78
2021/10/08 10:00:35;;;;;;;;;;;;;;;16.62;100.00;100499.47;4985731;28;20304;-77
2021/10/08 10:03:01;;;;;;;;;;;;;;;16.64;100.00;100495.09;4917132;28;19925;-77
2021/10/08 10:05:27;;;;;;;;;;;;;;;17.29;100.00;100495.53;4980233;28;20022;-77
2021/10/08 10:07:53;;;;;;;;;;;;;;;17.71;100.00;100487.03;4975991;28;19929;-77
2021/10/08 10:10:19;;;;;;;;;;;;;;;17.83;100.00;100493.56;4974329;28;19934;-78
2021/10/08 10:12:44;;;;;;;;;;;;;;;19.06;100.00;100481.59;4963135;28;19919;-77
2021/10/08 10:15:10;;;;;;;;;;;;;;;17.79;100.00;100485.00;4974217;28;19950;-78
2021/10/08 10:17:37;;;;;;;;;;;;;;;17.91;100.00;100484.53;4986619;28;19958;-78
2021/10/08 10:20:02;;;;;;;;;;;;;;;17.90;100.00;100492.41;4981987;28;19913;-78
2021/10/08 10:22:29;;;;;;;;;;;;;;;18.79;100.00;100489.72;4980546;28;19946;-77
2021/10/08 10:24:54;;;;;;;;;;;;;;;18.50;100.00;100490.91;4986496;28;20035;-78
2021/10/08 10:27:19;;;;;;;;;;;;;;;17.30;100.00;100492.00;4980030;28;19994;-77
2021/10/08 10:29:45;;;;;;;;;;;;;;;16.90;100.00;100489.06;4958611;28;19915;-78
2021/10/08 10:32:10;;;;;;;;;;;;;;;17.75;100.00;100483.41;4984388;28;19919;-77
2021/10/08 10:34:36;;;;;;;;;;;;;;;18.48;100.00;100478.84;4978600;28;19921;-78
2021/10/08 10:37:02;;;;;;;;;;;;;;;18.10;100.00;100478.59;4895278;28;19917;-77
2021/10/08 10:39:27;;;;;;;;;;;;;;;18.39;100.00;100469.63;4981160;28;19919;-77
2021/10/08 10:41:56;;;;;;;;;;;;;;;19.20;100.00;100475.78;4987472;28;19919;-77
2021/10/08 10:44:42;;;;;;;;;;;;;;;19.56;100.00;100470.66;4920132;28;19923;-77
2021/10/08 10:47:16;;;;;;;;;;;;;;;20.34;100.00;100468.75;4972293;28;19930;-77
2021/10/08 10:49:45;;;;;;;;;;;;;;;18.71;100.00;100473.50;4982614;28;19919;-78
2021/10/08 10:52:11;;;;;;;;;;;;;;;18.96;100.00;100459.44;4974901;28;19930;-78
2021/10/08 10:54:53;;;;;;;;;;;;;;;18.07;100.00;100468.31;4953729;28;19919;-78
2021/10/08 10:57:18;;;;;;;;;;;;;;;19.26;100.00;100459.84;4959380;28;20403;-78
2021/10/08 10:59:44;;;;;;;;;;;;;;;18.95;100.00;100462.94;4913955;28;19968;-77
2021/10/08 11:02:11;;;;;;;;;;;;;;;19.09;100.00;100462.34;4918892;28;19928;-78
2021/10/08 11:04:38;;;;;;;;;;;;;;;19.68;100.00;100457.94;4969384;28;19917;-78
2021/10/08 11:07:07;;;;;;;;;;;;;;;18.92;100.00;100452.66;4978977;28;20271;-78
2021/10/08 11:09:32;;;;;;;;;;;;;;;18.46;100.00;100454.56;4981336;28;19918;-77
2021/10/08 11:12:16;;;;;;;;;;;;;;;19.56;100.00;100455.00;4974607;28;19919;-77
2021/10/08 11:14:41;;;;;;;;;;;;;;;19.74;100.00;100452.47;4967577;28;19971;-78
2021/10/08 11:17:28;;;;;;;;;;;;;;;18.49;100.00;100457.03;4985466;28;19984;-78
2021/10/08 11:19:53;;;;;;;;;;;;;;;19.65;100.00;100448.50;4919633;28;19961;-77
2021/10/08 11:22:18;;;;;;;;;;;;;;;18.96;100.00;100452.44;4988074;28;19973;-78
2021/10/08 11:24:44;;;;;;;;;;;;;;;20.22;100.00;100453.66;4963574;28;20289;-77
2021/10/08 11:27:09;;;;;;;;;;;;;;;20.12;100.00;100447.22;4968845;28;19973;-77
2021/10/08 11:29:35;;;;;;;;;;;;;;;20.58;100.00;100445.81;4987107;28;19929;-77
2021/10/08 11:32:01;;;;;;;;;;;;;;;20.06;100.00;100448.34;4906239;28;19923;-77
2021/10/08 11:34:26;;;;;;;;;;;;;;;19.69;100.00;100446.63;4962148;28;19926;-77
2021/10/08 11:36:58;;;;;;;;;;;;;;;19.69;100.00;100442.25;4968952;28;19919;-77
2021/10/08 11:39:23;;;;;;;;;;;;;;;18.96;100.00;100444.63;4960398;28;19946;-77
2021/10/08 11:41:55;;;;;;;;;;;;;;;19.58;100.00;100437.47;4988131;28;20379;-77
2021/10/08 11:46:56;;;;;;;;;;;;;;;20.68;95.44;100431.31;4970799;28;19921;-77
2021/10/08 11:51:57;;;;;;;;;;;;;;;20.13;97.24;100427.97;4986664;28;19927;-76
2021/10/08 11:54:22;;;;;;;;;;;;;;;20.36;99.42;100430.28;4973088;28;19934;-77
2021/10/08 11:57:01;;;;;;;;;;;;;;;20.27;96.19;100431.63;4975533;28;19934;-77
2021/10/08 11:59:27;;;;;;;;;;;;;;;21.11;96.42;100425.63;4983928;28;19930;-77
2021/10/08 12:02:19;;;;;;;;;;;;;;;20.55;100.00;100422.38;4983001;28;20418;-77
2021/10/08 12:04:57;;;;;;;;;;;;;;;18.94;100.00;100429.94;4918407;28;19915;-77
2021/10/08 12:07:22;;;;;;;;;;;;;;;19.83;100.00;100425.91;4970998;28;19946;-77
2021/10/08 12:09:48;;;;;;;;;;;;;;;20.58;95.86;100418.78;4929603;28;19927;-77
2021/10/08 12:12:16;;;;;;;;;;;;;;;20.73;97.62;100415.34;4983665;28;20442;-74
2021/10/08 12:14:43;;;;;;;;;;;;;;;21.28;97.26;100404.63;4984995;28;19942;-78
2021/10/08 12:17:10;;;;;;;;;;;;;;;20.96;90.69;100408.97;4986965;28;19983;-77
2021/10/08 12:19:36;;;;;;;;;;;;;;;19.86;93.45;100410.06;4917592;28;19919;-77
2021/10/08 12:22:02;;;;;;;;;;;;;;;19.92;93.83;100414.16;4981869;28;19964;-77
2021/10/08 12:24:27;;;;;;;;;;;;;;;20.75;89.06;100404.81;4981881;28;19958;-77
2021/10/08 12:27:00;;;;;;;;;;;;;;;20.42;93.76;100409.06;4990027;28;19993;-78
2021/10/08 12:29:25;;;;;;;;;;;;;;;20.51;88.85;100401.69;4983111;28;20340;-77
2021/10/08 12:31:52;;;;;;;;;;;;;;;21.31;84.88;100400.97;4929801;28;19922;-77